createdAt,value
2023-01-04T00:00:36.905Z,5.74
2023-01-04T00:03:05.915Z,5.82
2023-01-04T00:05:37.017Z,5.82
2023-01-04T00:08:06.919Z,5.87
2023-01-04T00:10:36.047Z,5.88
2023-01-04T00:13:08.346Z,5.93
2023-01-04T00:15:37.357Z,5.89
2023-01-04T00:18:06.831Z,5.99
2023-01-04T00:20:38.007Z,6.03
2023-01-04T00:23:06.745Z,6.08
2023-01-04T00:25:36.879Z,6.12
2023-01-04T00:28:05.737Z,6.15
2023-01-04T00:30:34.821Z,6.18
2023-01-04T00:33:03.620Z,6.22
2023-01-04T00:35:45.770Z,6.34
2023-01-04T00:38:17.082Z,6.34
2023-01-04T00:40:45.828Z,6.42
2023-01-04T00:43:15.437Z,6.30
2023-01-04T00:45:45.751Z,6.39
2023-01-04T00:48:15.557Z,6.42
2023-01-04T00:50:46.814Z,6.41
2023-01-04T00:53:18.554Z,6.47
2023-01-04T00:55:49.881Z,6.57
2023-01-04T00:58:18.692Z,6.55
2023-01-04T01:00:47.427Z,6.51
2023-01-04T01:03:16.833Z,6.62
2023-01-04T01:05:46.767Z,6.62
2023-01-04T01:08:26.172Z,6.57
2023-01-04T01:10:55.195Z,6.62
2023-01-04T01:13:24.229Z,6.70
2023-01-04T01:15:55.303Z,6.62
2023-01-04T01:18:24.051Z,6.74
2023-01-04T01:20:53.351Z,6.73
2023-01-04T01:23:24.727Z,6.71
2023-01-04T01:26:01.384Z,6.68
2023-01-04T01:28:30.181Z,6.69
2023-01-04T01:31:03.788Z,6.67
2023-01-04T01:33:38.317Z,6.69
2023-01-04T01:36:07.881Z,6.61
2023-01-04T01:38:38.763Z,6.64
2023-01-04T01:41:11.392Z,6.69
2023-01-04T01:43:50.802Z,6.64
2023-01-04T01:46:22.050Z,6.66
2023-01-04T01:48:51.529Z,6.59
2023-01-04T01:51:21.255Z,6.62
2023-01-04T01:53:53.583Z,6.62
2023-01-04T01:56:22.268Z,6.58
2023-01-04T01:58:54.086Z,6.62
2023-01-04T02:01:23.303Z,6.65
2023-01-04T02:03:52.085Z,6.69
2023-01-04T02:06:22.652Z,6.71
2023-01-04T02:08:56.901Z,6.63
2023-01-04T02:11:25.575Z,6.68
2023-01-04T02:14:09.241Z,6.61
2023-01-04T02:16:48.193Z,6.63
2023-01-04T02:19:30.239Z,6.62
2023-01-04T02:22:09.469Z,6.66
2023-01-04T02:24:51.082Z,6.69
2023-01-04T02:27:35.301Z,6.62
2023-01-04T02:30:16.728Z,6.63
2023-01-04T02:32:56.752Z,6.67
2023-01-04T02:35:27.709Z,6.67
2023-01-04T02:38:00.255Z,6.67
2023-01-04T02:40:33.025Z,6.60
2023-01-04T02:43:21.032Z,6.57
2023-01-04T02:45:52.635Z,6.61
2023-01-04T02:48:37.271Z,6.63
2023-01-04T02:51:06.363Z,6.60
2023-01-04T02:53:36.225Z,6.58
2023-01-04T02:56:11.874Z,6.58
2023-01-04T02:58:53.533Z,6.54
2023-01-04T03:01:42.584Z,6.61
2023-01-04T03:04:33.968Z,6.62
2023-01-04T03:07:04.556Z,6.68
2023-01-04T03:09:35.792Z,6.80
2023-01-04T03:12:20.135Z,6.73
2023-01-04T03:14:50.574Z,6.64
2023-01-04T03:17:20.357Z,6.64
2023-01-04T03:19:55.671Z,6.69
2023-01-04T03:22:42.242Z,6.78
2023-01-04T03:25:24.976Z,6.75
2023-01-04T03:28:07.353Z,6.80
2023-01-04T03:30:53.066Z,6.80
2023-01-04T03:33:35.416Z,6.82
2023-01-04T03:36:10.899Z,6.75
2023-01-04T03:38:55.092Z,6.76
2023-01-04T03:41:41.119Z,6.74
2023-01-04T03:44:26.500Z,6.73
2023-01-04T03:47:09.753Z,6.82
2023-01-04T03:49:41.856Z,6.84
2023-01-04T03:52:11.957Z,6.86
2023-01-04T03:54:42.720Z,6.87
2023-01-04T03:57:11.861Z,6.86
2023-01-04T03:59:42.893Z,7.01
2023-01-04T04:02:14.220Z,6.98
2023-01-04T04:04:56.947Z,6.90
2023-01-04T04:07:40.667Z,7.02
2023-01-04T04:10:10.237Z,7.02
2023-01-04T04:12:38.966Z,7.02
2023-01-04T04:15:09.078Z,7.09
2023-01-04T04:17:39.550Z,7.04
2023-01-04T04:20:11.664Z,7.04
2023-01-04T04:22:42.067Z,7.10
2023-01-04T04:25:11.308Z,7.09
2023-01-04T04:27:40.104Z,7.13
2023-01-04T04:30:13.423Z,7.14
2023-01-04T04:32:44.432Z,7.08
2023-01-04T04:35:13.140Z,7.11
2023-01-04T04:37:46.777Z,7.12
2023-01-04T04:40:29.240Z,7.13
2023-01-04T04:42:58.229Z,7.12
2023-01-04T04:45:26.963Z,7.13
2023-01-04T04:47:55.697Z,7.20
2023-01-04T04:50:24.397Z,7.25
2023-01-04T04:52:56.388Z,7.38
2023-01-04T04:55:25.320Z,7.31
2023-01-04T04:57:54.025Z,7.31
2023-01-04T05:00:23.163Z,7.37
2023-01-04T05:02:51.992Z,7.40
2023-01-04T05:05:20.846Z,7.30
2023-01-04T05:07:49.709Z,7.37
2023-01-04T05:10:21.014Z,7.35
2023-01-04T05:13:02.164Z,7.32
2023-01-04T05:15:32.279Z,7.28
2023-01-04T05:18:01.052Z,7.37
2023-01-04T05:20:32.743Z,7.44
2023-01-04T05:23:01.486Z,7.40
2023-01-04T05:25:31.699Z,7.48
2023-01-04T05:28:00.883Z,7.43
2023-01-04T05:30:43.231Z,7.51
2023-01-04T05:33:11.934Z,7.53
2023-01-04T05:35:41.910Z,7.47
2023-01-04T05:38:10.937Z,7.57
2023-01-04T05:40:41.337Z,7.57
2023-01-04T05:43:10.082Z,7.54
2023-01-04T05:45:39.271Z,7.50
2023-01-04T05:48:08.614Z,7.59
2023-01-04T05:50:37.745Z,7.54
2023-01-04T05:53:08.488Z,7.59
2023-01-04T05:55:37.535Z,7.64
2023-01-04T05:58:09.756Z,7.64
2023-01-04T06:00:38.482Z,7.69
2023-01-04T06:03:07.573Z,7.67
2023-01-04T06:05:36.519Z,7.68
2023-01-04T06:08:07.510Z,7.67
2023-01-04T06:10:36.205Z,7.71
2023-01-04T06:13:08.379Z,7.81
2023-01-04T06:15:43.245Z,7.76
2023-01-04T06:18:14.111Z,7.84
2023-01-04T06:20:45.261Z,7.75
2023-01-04T06:23:15.373Z,7.81
2023-01-04T06:25:51.913Z,7.82
2023-01-04T06:28:22.991Z,7.88
2023-01-04T06:30:52.712Z,7.88
2023-01-04T06:33:21.860Z,7.86
2023-01-04T06:35:55.812Z,7.88
2023-01-04T06:38:26.909Z,7.89
2023-01-04T06:40:56.988Z,7.79
2023-01-04T06:43:27.025Z,7.78
2023-01-04T06:46:01.578Z,7.86
2023-01-04T06:48:30.777Z,7.82
2023-01-04T06:51:00.023Z,7.84
2023-01-04T06:53:28.725Z,7.96
2023-01-04T06:55:57.833Z,8.05
2023-01-04T06:58:31.498Z,7.97
2023-01-04T07:01:03.780Z,7.94
2023-01-04T07:03:33.233Z,8.02
2023-01-04T07:06:04.924Z,8.01
2023-01-04T07:08:33.627Z,8.05
2023-01-04T07:11:02.321Z,7.97
2023-01-04T07:13:33.548Z,8.01
2023-01-04T07:16:09.995Z,8.06
2023-01-04T07:18:38.959Z,8.08
2023-01-04T07:21:09.671Z,8.10
2023-01-04T07:23:38.826Z,8.10
2023-01-04T07:26:07.641Z,8.10
2023-01-04T07:28:52.702Z,8.11
2023-01-04T07:31:21.780Z,8.10
2023-01-04T07:33:52.119Z,8.16
2023-01-04T07:36:22.311Z,8.28
2023-01-04T07:38:53.488Z,8.11
2023-01-04T07:41:22.627Z,8.09
2023-01-04T07:43:53.397Z,8.14
2023-01-04T07:46:25.480Z,8.19
2023-01-04T07:48:57.876Z,8.26
2023-01-04T07:51:27.714Z,8.28
2023-01-04T07:54:04.508Z,8.27
2023-01-04T07:56:33.381Z,8.40
2023-01-04T07:59:03.657Z,8.38
2023-01-04T08:01:40.307Z,8.46
2023-01-04T08:04:17.497Z,8.48
2023-01-04T08:06:47.688Z,8.54
2023-01-04T08:09:23.927Z,8.59
2023-01-04T08:11:53.519Z,8.59
2023-01-04T08:14:23.747Z,8.58
2023-01-04T08:16:53.130Z,8.56
2023-01-04T08:19:24.331Z,8.60
2023-01-04T08:21:53.071Z,8.67
2023-01-04T08:24:22.536Z,8.62
2023-01-04T08:26:52.003Z,8.61
2023-01-04T08:29:28.241Z,8.71
2023-01-04T08:32:08.896Z,8.72
2023-01-04T08:34:45.497Z,8.56
2023-01-04T08:37:22.357Z,8.68
2023-01-04T08:39:54.757Z,8.65
2023-01-04T08:42:30.771Z,8.63
2023-01-04T08:45:04.620Z,8.65
2023-01-04T08:47:34.400Z,8.74
2023-01-04T08:50:10.231Z,8.72
2023-01-04T08:52:39.985Z,8.70
2023-01-04T08:55:13.232Z,8.73
2023-01-04T08:57:44.073Z,8.80
2023-01-04T09:00:15.504Z,8.89
2023-01-04T09:02:46.727Z,8.78
2023-01-04T09:05:22.224Z,8.86
2023-01-04T09:07:52.053Z,8.79
2023-01-04T09:10:21.210Z,8.79
2023-01-04T09:12:50.257Z,8.78
2023-01-04T09:15:21.051Z,8.90
2023-01-04T09:18:31.449Z,8.80
2023-01-04T09:20:46.012Z,8.84
2023-01-04T09:23:14.884Z,8.87
2023-01-04T09:25:43.581Z,8.84
2023-01-04T09:28:12.431Z,8.81
2023-01-04T09:31:00.876Z,8.91
2023-01-04T09:34:03.545Z,8.86
2023-01-04T09:36:19.166Z,8.95
2023-01-04T09:38:47.951Z,9.00
2023-01-04T09:41:22.486Z,9.06
2023-01-04T09:43:52.305Z,9.09
2023-01-04T09:46:27.792Z,9.06
2023-01-04T09:49:00.699Z,9.02
2023-01-04T09:51:35.790Z,9.01
2023-01-04T09:54:06.752Z,9.17
2023-01-04T09:56:35.795Z,9.21
2023-01-04T09:59:09.620Z,9.22
2023-01-04T10:01:46.639Z,9.26
2023-01-04T10:04:19.431Z,9.32
2023-01-04T10:06:48.788Z,9.34
2023-01-04T10:09:18.084Z,9.37
2023-01-04T10:11:58.337Z,9.36
2023-01-04T10:14:34.805Z,9.45
2023-01-04T10:17:14.647Z,9.47
2023-01-04T10:22:47.625Z,9.61
2023-01-04T10:25:25.771Z,9.55
2023-01-04T10:28:02.998Z,9.39
2023-01-04T10:30:34.622Z,9.54
2023-01-04T10:33:10.712Z,9.44
2023-01-04T10:35:41.100Z,9.48
2023-01-04T10:38:15.979Z,9.51
2023-01-04T10:40:44.750Z,9.59
2023-01-04T10:43:17.083Z,9.62
2023-01-04T10:45:48.388Z,9.62
2023-01-04T10:48:21.830Z,9.50
2023-01-04T10:50:53.862Z,9.57
2023-01-04T10:53:24.462Z,9.56
2023-01-04T10:56:25.259Z,9.69
2023-01-04T10:58:45.872Z,9.63
2023-01-04T11:01:16.974Z,9.61
2023-01-04T11:03:52.177Z,9.61
2023-01-04T11:06:23.061Z,9.66
2023-01-04T11:08:52.319Z,9.69
2023-01-04T11:11:24.168Z,9.65
2023-01-04T11:13:52.929Z,9.65
2023-01-04T11:16:22.766Z,9.71
2023-01-04T11:18:55.481Z,9.69
2023-01-04T11:21:26.486Z,9.65
2023-01-04T11:23:59.698Z,9.72
2023-01-04T11:26:40.471Z,9.61
2023-01-04T11:29:23.635Z,9.69
2023-01-04T11:31:55.655Z,9.76
2023-01-04T11:34:47.324Z,9.87
2023-01-04T11:37:33.612Z,9.73
2023-01-04T11:40:15.416Z,9.82
2023-01-04T11:42:44.227Z,9.71
2023-01-04T11:45:19.303Z,9.73
2023-01-04T11:47:49.984Z,9.77
2023-01-04T11:50:36.708Z,9.72
2023-01-04T11:53:06.336Z,9.76
2023-01-04T11:55:35.149Z,9.79
2023-01-04T11:58:08.657Z,9.85
2023-01-04T12:00:38.731Z,9.90
2023-01-04T12:03:13.462Z,9.84
2023-01-04T12:05:43.534Z,9.91
2023-01-04T12:08:14.216Z,9.76
2023-01-04T12:10:43.896Z,9.79
2023-01-04T12:13:12.627Z,9.71
2023-01-04T12:15:44.895Z,9.86
2023-01-04T12:18:16.936Z,9.89
2023-01-04T12:20:47.086Z,9.81
2023-01-04T12:23:18.580Z,9.94
2023-01-04T12:25:52.400Z,9.88
2023-01-04T12:28:33.078Z,9.87
2023-01-04T12:31:28.629Z,9.92
2023-01-04T12:33:57.728Z,10.00
2023-01-04T12:36:58.565Z,10.03
2023-01-04T12:39:42.201Z,10.06
2023-01-04T12:42:15.914Z,10.02
2023-01-04T12:45:03.582Z,10.08
2023-01-04T12:47:55.138Z,10.09
2023-01-04T12:50:26.770Z,10.11
2023-01-04T12:53:19.859Z,10.17
2023-01-04T12:55:56.875Z,10.17
2023-01-04T12:59:23.120Z,10.27
2023-01-04T13:01:30.119Z,10.28
2023-01-04T13:04:05.062Z,10.40
2023-01-04T13:06:37.315Z,10.27
2023-01-04T13:09:11.097Z,10.35
2023-01-04T13:11:55.658Z,10.38
2023-01-04T13:14:29.304Z,10.30
2023-01-04T13:17:09.957Z,10.35
2023-01-04T13:19:40.158Z,10.35
2023-01-04T13:22:12.344Z,10.35
2023-01-04T13:24:44.392Z,10.35
2023-01-04T13:27:18.657Z,10.41
2023-01-04T13:29:47.569Z,10.26
2023-01-04T13:32:20.212Z,10.40
2023-01-04T13:34:52.814Z,10.44
2023-01-04T13:37:28.129Z,10.45
2023-01-04T13:40:04.454Z,10.49
2023-01-04T13:42:36.493Z,10.58
2023-01-04T13:45:20.429Z,10.64
2023-01-04T13:47:51.612Z,10.75
2023-01-04T13:50:28.230Z,10.73
2023-01-04T13:53:13.500Z,10.68
2023-01-04T13:55:43.108Z,10.61
2023-01-04T13:58:20.754Z,10.74
2023-01-04T14:00:53.046Z,10.88
2023-01-04T14:03:34.582Z,10.85
2023-01-04T14:06:20.338Z,10.80
2023-01-04T14:09:07.105Z,10.81
2023-01-04T14:11:50.885Z,10.84
2023-01-04T14:14:34.062Z,10.87
2023-01-04T14:17:21.027Z,10.88
2023-01-04T14:19:51.906Z,10.88
2023-01-04T14:22:28.229Z,10.94
2023-01-04T14:25:09.020Z,10.82
2023-01-04T14:27:40.444Z,10.87
2023-01-04T14:30:26.790Z,10.90
2023-01-04T14:32:56.654Z,10.84
2023-01-04T14:35:25.531Z,10.94
2023-01-04T14:37:54.252Z,10.91
2023-01-04T14:40:25.877Z,10.93
2023-01-04T14:42:55.610Z,11.04
2023-01-04T14:45:24.295Z,10.99
2023-01-04T14:47:54.719Z,10.99
2023-01-04T14:50:23.455Z,11.02
2023-01-04T14:52:52.803Z,11.10
2023-01-04T14:55:23.574Z,11.07
2023-01-04T14:57:53.365Z,11.08
2023-01-04T15:00:23.362Z,11.16
2023-01-04T15:02:53.663Z,11.15
2023-01-04T15:05:22.887Z,11.13
2023-01-04T15:07:51.656Z,11.18
2023-01-04T15:10:22.619Z,11.16
2023-01-04T15:12:51.748Z,11.22
2023-01-04T15:15:29.983Z,11.19
2023-01-04T15:18:00.140Z,11.19
2023-01-04T15:20:28.882Z,11.18
2023-01-04T15:22:58.203Z,11.22
2023-01-04T15:25:29.792Z,11.06
2023-01-04T15:27:58.548Z,11.06
2023-01-04T15:30:28.611Z,11.12
2023-01-04T15:32:57.384Z,11.13
2023-01-04T15:35:27.495Z,11.13
2023-01-04T15:37:56.535Z,11.15
2023-01-04T15:40:25.787Z,11.18
2023-01-04T15:42:59.779Z,11.18
2023-01-04T15:45:29.094Z,11.17
2023-01-04T15:48:03.397Z,11.23
2023-01-04T15:50:34.942Z,11.20
2023-01-04T15:53:04.208Z,11.28
2023-01-04T15:55:36.220Z,11.24
2023-01-04T15:58:05.377Z,11.24
2023-01-04T16:00:34.434Z,11.22
2023-01-04T16:03:03.221Z,11.22
2023-01-04T16:05:36.462Z,11.26
2023-01-04T16:08:23.637Z,11.26
2023-01-04T16:10:52.848Z,11.18
2023-01-04T16:13:21.579Z,11.15
2023-01-04T16:15:51.463Z,11.23
2023-01-04T16:18:20.199Z,11.23
2023-01-04T16:20:50.228Z,11.13
2023-01-04T16:23:19.476Z,11.20
2023-01-04T16:25:48.766Z,11.15
2023-01-04T16:28:17.772Z,11.30
2023-01-04T16:30:47.318Z,11.27
2023-01-04T16:33:16.564Z,11.20
2023-01-04T16:35:45.258Z,11.07
2023-01-04T16:38:15.696Z,11.19
2023-01-04T16:40:44.361Z,11.15
2023-01-04T16:43:13.099Z,11.13
2023-01-04T16:45:41.802Z,11.07
2023-01-04T16:48:16.586Z,11.10
2023-01-04T16:50:47.558Z,11.07
2023-01-04T16:53:17.815Z,10.99
2023-01-04T16:55:47.970Z,10.98
2023-01-04T16:58:16.737Z,11.00
2023-01-04T17:00:45.807Z,11.07
2023-01-04T17:03:14.538Z,11.06
2023-01-04T17:05:43.845Z,11.14
2023-01-04T17:08:12.531Z,11.05
2023-01-04T17:10:42.626Z,11.03
2023-01-04T17:13:12.955Z,11.12
2023-01-04T17:15:43.516Z,11.01
2023-01-04T17:18:15.488Z,11.04
2023-01-04T17:20:53.597Z,11.06
2023-01-04T17:23:23.525Z,11.08
2023-01-04T17:25:53.624Z,11.22
2023-01-04T17:28:25.078Z,11.24
2023-01-04T17:30:54.358Z,11.18
2023-01-04T17:33:23.411Z,11.21
2023-01-04T17:35:53.109Z,11.25
2023-01-04T17:38:22.169Z,11.15
2023-01-04T17:40:53.463Z,11.08
2023-01-04T17:43:22.179Z,11.13
2023-01-04T17:45:50.997Z,11.12
2023-01-04T17:48:20.276Z,11.09
2023-01-04T17:50:49.395Z,11.17
2023-01-04T17:53:18.160Z,11.05
2023-01-04T17:55:46.848Z,11.04
2023-01-04T17:58:21.725Z,11.08
2023-01-04T18:00:52.187Z,11.01
2023-01-04T18:03:24.635Z,11.09
2023-01-04T18:05:59.462Z,11.11
2023-01-04T18:08:42.459Z,10.99
2023-01-04T18:11:13.473Z,11.02
2023-01-04T18:13:46.446Z,10.94
2023-01-04T18:16:25.108Z,11.00
2023-01-04T18:18:54.751Z,10.94
2023-01-04T18:21:29.849Z,11.06
2023-01-04T18:29:39.029Z,10.97
2023-01-04T18:32:07.822Z,11.02
2023-01-04T18:34:36.661Z,10.84
2023-01-04T18:37:05.485Z,10.93
2023-01-04T18:39:34.648Z,10.90
2023-01-04T18:42:03.456Z,10.91
2023-01-04T18:44:50.040Z,10.85
2023-01-04T18:47:22.135Z,10.84
2023-01-04T18:49:51.313Z,10.92
2023-01-04T18:52:20.526Z,10.95
2023-01-04T18:54:49.643Z,10.81
2023-01-04T18:57:18.353Z,10.78
2023-01-04T18:59:51.530Z,10.79
2023-01-04T19:02:29.316Z,10.81
2023-01-04T19:04:58.145Z,10.73
2023-01-04T19:07:27.858Z,10.73
2023-01-04T19:10:14.134Z,10.81
2023-01-04T19:12:43.428Z,10.81
2023-01-04T19:15:13.073Z,10.87
2023-01-04T19:17:43.378Z,10.91
2023-01-04T19:20:14.375Z,10.72
2023-01-04T19:22:43.931Z,10.80
2023-01-04T19:25:12.725Z,10.69
2023-01-04T19:27:43.911Z,10.72
2023-01-04T19:30:14.108Z,10.72
2023-01-04T19:32:58.825Z,10.68
2023-01-04T19:35:27.830Z,10.79
2023-01-04T19:37:56.946Z,10.85
2023-01-04T19:40:25.702Z,10.75
2023-01-04T19:42:54.903Z,10.81
2023-01-04T19:45:27.550Z,10.71
2023-01-04T19:48:01.628Z,10.84
2023-01-04T19:50:30.682Z,10.73
2023-01-04T19:52:59.345Z,10.73
2023-01-04T19:55:29.950Z,10.78
2023-01-04T19:57:59.045Z,10.77
2023-01-04T20:00:28.218Z,10.77
2023-01-04T20:02:57.157Z,10.88
2023-01-04T20:05:28.063Z,10.72
2023-01-04T20:07:57.002Z,10.84
2023-01-04T20:10:25.734Z,10.83
2023-01-04T20:12:57.537Z,10.87
2023-01-04T20:15:27.940Z,10.74
2023-01-04T20:17:57.850Z,10.86
2023-01-04T20:20:30.224Z,10.81
2023-01-04T20:23:00.734Z,10.82
2023-01-04T20:25:31.875Z,10.81
2023-01-04T20:28:01.146Z,10.76
2023-01-04T20:30:31.206Z,10.78
2023-01-04T20:32:59.951Z,10.77
2023-01-04T20:35:31.951Z,10.70
2023-01-04T20:38:01.305Z,10.65
2023-01-04T20:40:30.022Z,10.80
2023-01-04T20:43:12.409Z,10.85
2023-01-04T20:45:45.012Z,10.70
2023-01-04T20:48:14.031Z,10.85
2023-01-04T20:50:47.712Z,10.73
2023-01-04T20:53:16.659Z,10.74
2023-01-04T20:55:46.240Z,10.72
2023-01-04T20:58:16.286Z,10.76
2023-01-04T21:00:46.629Z,10.78
2023-01-04T21:03:16.216Z,10.74
2023-01-04T21:05:47.708Z,10.82
2023-01-04T21:08:17.320Z,10.90
2023-01-04T21:10:46.413Z,10.90
2023-01-04T21:13:16.044Z,10.80
2023-01-04T21:15:47.265Z,10.55
2023-01-04T21:18:17.067Z,10.68
2023-01-04T21:20:50.852Z,10.74
2023-01-04T21:23:23.097Z,10.55
2023-01-04T21:28:39.490Z,10.78
2023-01-04T21:31:14.127Z,10.67
2023-01-04T21:33:43.200Z,10.72
2023-01-04T21:36:17.715Z,10.57
2023-01-04T21:38:46.546Z,10.61
2023-01-04T21:41:16.010Z,10.55
2023-01-04T21:43:45.898Z,10.69
2023-01-04T21:46:15.930Z,10.56
2023-01-04T21:48:47.565Z,10.62
2023-01-04T21:51:18.919Z,10.68
2023-01-04T21:53:47.700Z,10.58
2023-01-04T21:56:18.586Z,10.61
2023-01-04T21:58:47.367Z,10.50
2023-01-04T22:01:18.292Z,10.38
2023-01-04T22:03:47.333Z,10.59
2023-01-04T22:06:18.227Z,10.59
2023-01-04T22:08:47.761Z,10.58
2023-01-04T22:11:16.887Z,10.66
2023-01-04T22:13:48.588Z,10.55
2023-01-04T22:16:18.109Z,10.60
2023-01-04T22:18:48.817Z,10.67
2023-01-04T22:21:20.492Z,10.43
2023-01-04T22:23:49.618Z,10.56
2023-01-04T22:26:18.326Z,10.49
2023-01-04T22:28:47.249Z,10.60
2023-01-04T22:31:19.448Z,10.60
2023-01-04T22:33:48.581Z,10.64
2023-01-04T22:36:22.743Z,10.69
2023-01-04T22:38:55.372Z,10.55
2023-01-04T22:41:24.984Z,10.67
2023-01-04T22:43:58.462Z,10.71
2023-01-04T22:46:28.784Z,10.54
2023-01-04T22:48:58.977Z,10.62
2023-01-04T22:51:32.288Z,10.59
2023-01-04T22:54:05.979Z,10.50
2023-01-04T22:56:35.623Z,10.62
2023-01-04T22:59:08.503Z,10.74
2023-01-04T23:01:42.616Z,10.66
2023-01-04T23:04:17.195Z,10.60
2023-01-04T23:06:59.733Z,10.59
2023-01-04T23:09:31.606Z,10.61
2023-01-04T23:12:01.833Z,10.63
2023-01-04T23:14:30.586Z,10.43
2023-01-04T23:17:00.356Z,10.61
2023-01-04T23:19:29.173Z,10.53
2023-01-04T23:21:59.893Z,10.52
2023-01-04T23:24:34.287Z,10.61
2023-01-04T23:27:03.304Z,10.65
2023-01-04T23:29:33.203Z,10.57
2023-01-04T23:32:02.013Z,10.39
2023-01-04T23:34:31.032Z,10.48
2023-01-04T23:37:02.114Z,10.40
2023-01-04T23:39:31.565Z,10.48
2023-01-04T23:42:06.616Z,10.42
2023-01-04T23:44:35.334Z,10.50
2023-01-04T23:47:07.047Z,10.37
2023-01-04T23:49:39.903Z,10.53
2023-01-04T23:52:10.444Z,10.39
2023-01-04T23:54:42.458Z,10.45
2023-01-04T23:57:11.442Z,10.31
2023-01-04T23:59:40.171Z,10.57
